West Dover, VT (05351)

8:22 PM EDT on July 29, 2016 (GMT -0400)
Summit Meadows | | Change Station

Elev 1818 ft 42.94 °N, 72.85 °W | Updated 1 minute ago

Clear
Clear
66.6 °F
Feels Like 66.6 °F
N
1.1
Wind Variable Wind from WNW

Today
High -- | Low -- °F
--% Chance of Precip.
Yesterday
High -- | Low -- °F
Precip. -- in
Pressure 29.90 in
Visibility 10.0 miles
Clouds Clear
Dew Point 61 °F
Humidity 83%
Rainfall 0.00 in
Snow Depth Not available.
5:39 AM 8:15 PM
Waning Crescent, 18% visible
METAR KDDH 292354Z AUTO 00000KT 10SM CLR 23/16 A2991 RMK AO2 SLP124 60000 T02330161 10300 20233 51010 TSNO
Pressure 29.90 in
Visibility 10.0 miles
Clouds Clear
Dew Point 61 °F
Humidity 83%
Rainfall 0.00 in
Snow Depth Not available.
5:39 AM 8:15 PM
Waning Crescent, 18% visible
METAR KDDH 292354Z AUTO 00000KT 10SM CLR 23/16 A2991 RMK AO2 SLP124 60000 T02330161 10300 20233 51010 TSNO

10-Day Weather Forecast

Almanac

Astronomy

Jul. 29, 2016 Rise Set
Actual Time
Civil Twilight
Nautical Twilight
Astronomical Twilight
Moon
Length of Visible Light
Length of Day
Tomorrow will be .
, % of the Moon is Illuminated

Today's Extremes

State Highs State Lows

Community

WunderPhotos

Upload Photos

1,928,449 photos uploaded!

WunderBlog® & News

Nearby

Air Quality

  Air Quality AQ Index Pollutant
Not available.

Snow Depth

Station Depth Elevation

Earthquake Activity

City Distance Mag. Time & Date
Minimum magnitude displayed is 2.5.

Coastal Water Temperatures

Place Temperature

Stations

Nearby Weather Stations

Station Location Temp. Windchill Dew Point Humidity Wind Precip. Elev Updated Type
                   

Watches & Warnings

There are currently no watches in effect.